sensor_id;sensor_type;location;lat;lon;timestamp;pressure;altitude;pressure_sealevel;temperature;humidity
77706;BME280;66874;45.274;5.880;2024-03-02T00:01:58;98132.00;;;3.75;73.89
77706;BME280;66874;45.274;5.880;2024-03-02T00:04:23;98139.72;;;3.76;73.76
77706;BME280;66874;45.274;5.880;2024-03-02T00:06:52;98143.19;;;3.75;73.86
77706;BME280;66874;45.274;5.880;2024-03-02T00:09:20;98148.38;;;3.72;73.94
77706;BME280;66874;45.274;5.880;2024-03-02T00:11:45;98146.66;;;3.71;73.88
77706;BME280;66874;45.274;5.880;2024-03-02T00:14:11;98150.13;;;3.70;74.09
77706;BME280;66874;45.274;5.880;2024-03-02T00:16:36;98144.09;;;3.65;74.13
77706;BME280;66874;45.274;5.880;2024-03-02T00:19:06;98140.66;;;3.64;74.00
77706;BME280;66874;45.274;5.880;2024-03-02T00:21:32;98136.38;;;3.63;74.21
77706;BME280;66874;45.274;5.880;2024-03-02T00:23:58;98141.56;;;3.62;74.25
77706;BME280;66874;45.274;5.880;2024-03-02T00:26:25;98147.66;;;3.52;74.11
77706;BME280;66874;45.274;5.880;2024-03-02T00:28:54;98140.78;;;3.45;74.47
77706;BME280;66874;45.274;5.880;2024-03-02T00:31:20;98139.09;;;3.37;74.59
77706;BME280;66874;45.274;5.880;2024-03-02T00:33:49;98130.53;;;3.32;74.66
77706;BME280;66874;45.274;5.880;2024-03-02T00:36:26;98132.25;;;3.32;75.08
77706;BME280;66874;45.274;5.880;2024-03-02T00:38:54;98123.59;;;3.34;74.54
77706;BME280;66874;45.274;5.880;2024-03-02T00:41:32;98126.22;;;3.31;74.67
77706;BME280;66874;45.274;5.880;2024-03-02T00:44:04;98133.13;;;3.26;74.78
77706;BME280;66874;45.274;5.880;2024-03-02T00:46:43;98122.81;;;3.23;74.84
77706;BME280;66874;45.274;5.880;2024-03-02T00:49:24;98125.41;;;3.23;74.93
77706;BME280;66874;45.274;5.880;2024-03-02T00:51:52;98129.69;;;3.23;74.95
77706;BME280;66874;45.274;5.880;2024-03-02T00:54:22;98134.88;;;3.21;74.89
77706;BME280;66874;45.274;5.880;2024-03-02T00:56:49;98134.88;;;3.18;74.95
77706;BME280;66874;45.274;5.880;2024-03-02T00:59:15;98128.00;;;3.20;74.99
77706;BME280;66874;45.274;5.880;2024-03-02T01:01:40;98126.28;;;3.21;74.89
77706;BME280;66874;45.274;5.880;2024-03-02T01:04:07;98137.50;;;3.20;75.21
77706;BME280;66874;45.274;5.880;2024-03-02T01:06:32;98137.47;;;3.18;75.06
77706;BME280;66874;45.274;5.880;2024-03-02T01:08:59;98136.63;;;3.14;75.21
77706;BME280;66874;45.274;5.880;2024-03-02T01:11:24;98142.69;;;3.12;75.35
77706;BME280;66874;45.274;5.880;2024-03-02T01:13:50;98140.09;;;3.07;75.04
77706;BME280;66874;45.274;5.880;2024-03-02T01:16:16;98134.94;;;3.06;75.36
77706;BME280;66874;45.274;5.880;2024-03-02T01:18:41;98143.56;;;3.08;75.36
77706;BME280;66874;45.274;5.880;2024-03-02T01:21:07;98141.00;;;3.08;75.59
77706;BME280;66874;45.274;5.880;2024-03-02T01:23:32;98142.72;;;3.04;75.45
77706;BME280;66874;45.274;5.880;2024-03-02T01:25:58;98141.84;;;3.02;75.73
77706;BME280;66874;45.274;5.880;2024-03-02T01:28:23;98147.03;;;3.02;75.38
77706;BME280;66874;45.274;5.880;2024-03-02T01:30:49;98146.19;;;3.00;75.56
77706;BME280;66874;45.274;5.880;2024-03-02T01:33:15;98147.03;;;3.01;75.56
77706;BME280;66874;45.274;5.880;2024-03-02T01:35:40;98141.88;;;3.01;75.72
77706;BME280;66874;45.274;5.880;2024-03-02T01:38:06;98157.34;;;2.99;75.90
77706;BME280;66874;45.274;5.880;2024-03-02T01:40:35;98146.19;;;2.96;75.87
77706;BME280;66874;45.274;5.880;2024-03-02T01:43:01;98141.91;;;2.96;75.81
77706;BME280;66874;45.274;5.880;2024-03-02T01:45:28;98137.59;;;2.97;75.89
77706;BME280;66874;45.274;5.880;2024-03-02T01:47:53;98139.28;;;2.98;75.76
77706;BME280;66874;45.274;5.880;2024-03-02T01:50:29;98139.31;;;2.96;75.93
77706;BME280;66874;45.274;5.880;2024-03-02T01:52:58;98121.22;;;2.98;75.76
77706;BME280;66874;45.274;5.880;2024-03-02T01:55:24;98128.94;;;3.02;75.80
77706;BME280;66874;45.274;5.880;2024-03-02T01:57:49;98128.06;;;3.03;75.89
77706;BME280;66874;45.274;5.880;2024-03-02T02:00:20;98128.97;;;2.98;75.81
77706;BME280;66874;45.274;5.880;2024-03-02T02:02:46;98129.84;;;2.97;75.69
77706;BME280;66874;45.274;5.880;2024-03-02T02:05:12;98134.13;;;2.91;75.96
77706;BME280;66874;45.274;5.880;2024-03-02T02:07:40;98133.31;;;2.85;75.94
77706;BME280;66874;45.274;5.880;2024-03-02T02:10:05;98128.19;;;2.74;76.46
77706;BME280;66874;45.274;5.880;2024-03-02T02:12:31;98131.66;;;2.73;76.57
77706;BME280;66874;45.274;5.880;2024-03-02T02:14:57;98126.47;;;2.73;76.37
77706;BME280;66874;45.274;5.880;2024-03-02T02:17:22;98117.00;;;2.72;76.38
77706;BME280;66874;45.274;5.880;2024-03-02T02:19:48;98117.88;;;2.66;76.43
77706;BME280;66874;45.274;5.880;2024-03-02T02:22:13;98113.56;;;2.67;76.58
77706;BME280;66874;45.274;5.880;2024-03-02T02:24:42;98112.72;;;2.69;76.55
77706;BME280;66874;45.274;5.880;2024-03-02T02:27:08;98110.09;;;2.73;76.61
77706;BME280;66874;45.274;5.880;2024-03-02T02:29:34;98098.06;;;2.70;76.65
77706;BME280;66874;45.274;5.880;2024-03-02T02:31:59;98091.19;;;2.66;76.77
77706;BME280;66874;45.274;5.880;2024-03-02T02:34:25;98097.22;;;2.65;76.95
77706;BME280;66874;45.274;5.880;2024-03-02T02:36:50;98089.47;;;2.65;76.78
77706;BME280;66874;45.274;5.880;2024-03-02T02:39:19;98087.75;;;2.67;76.86
77706;BME280;66874;45.274;5.880;2024-03-02T02:41:45;98082.56;;;2.68;76.98
77706;BME280;66874;45.274;5.880;2024-03-02T02:44:11;98092.03;;;2.74;76.84
77706;BME280;66874;45.274;5.880;2024-03-02T02:46:39;98092.03;;;2.74;76.82
77706;BME280;66874;45.274;5.880;2024-03-02T02:49:05;98092.91;;;2.68;76.81
77706;BME280;66874;45.274;5.880;2024-03-02T02:51:30;98081.72;;;2.65;77.07
77706;BME280;66874;45.274;5.880;2024-03-02T02:53:56;98079.16;;;2.66;76.90
77706;BME280;66874;45.274;5.880;2024-03-02T02:56:21;98070.53;;;2.67;77.02
77706;BME280;66874;45.274;5.880;2024-03-02T02:58:47;98068.78;;;2.74;77.13
77706;BME280;66874;45.274;5.880;2024-03-02T03:01:12;98069.63;;;2.78;77.04
77706;BME280;66874;45.274;5.880;2024-03-02T03:03:38;98075.63;;;2.80;77.10
77706;BME280;66874;45.274;5.880;2024-03-02T03:06:03;98088.56;;;2.78;77.03
77706;BME280;66874;45.274;5.880;2024-03-02T03:08:29;98081.69;;;2.74;77.25
77706;BME280;66874;45.274;5.880;2024-03-02T03:10:54;98086.00;;;2.72;77.12
77706;BME280;66874;45.274;5.880;2024-03-02T03:13:19;98083.41;;;2.72;77.31
77706;BME280;66874;45.274;5.880;2024-03-02T03:15:45;98080.84;;;2.67;77.48
77706;BME280;66874;45.274;5.880;2024-03-02T03:18:10;98074.00;;;2.59;77.56
77706;BME280;66874;45.274;5.880;2024-03-02T03:20:36;98077.47;;;2.55;77.80
77706;BME280;66874;45.274;5.880;2024-03-02T03:23:01;98078.31;;;2.55;77.68
77706;BME280;66874;45.274;5.880;2024-03-02T03:25:27;98075.72;;;2.57;77.68
77706;BME280;66874;45.274;5.880;2024-03-02T03:27:52;98077.44;;;2.59;77.69
77706;BME280;66874;45.274;5.880;2024-03-02T03:30:18;98075.72;;;2.61;77.74
77706;BME280;66874;45.274;5.880;2024-03-02T03:32:43;98080.03;;;2.62;77.74
77706;BME280;66874;45.274;5.880;2024-03-02T03:35:09;98077.44;;;2.65;77.60
77706;BME280;66874;45.274;5.880;2024-03-02T03:37:34;98073.13;;;2.67;77.77
77706;BME280;66874;45.274;5.880;2024-03-02T03:40:00;98081.72;;;2.71;77.76
77706;BME280;66874;45.274;5.880;2024-03-02T03:42:26;98080.81;;;2.75;77.69
77706;BME280;66874;45.274;5.880;2024-03-02T03:44:52;98091.16;;;2.81;77.78
77706;BME280;66874;45.274;5.880;2024-03-02T03:47:17;98086.81;;;2.86;77.67
77706;BME280;66874;45.274;5.880;2024-03-02T03:49:42;98078.19;;;2.90;77.73
77706;BME280;66874;45.274;5.880;2024-03-02T03:52:08;98069.56;;;2.94;77.81
77706;BME280;66874;45.274;5.880;2024-03-02T03:54:33;98071.25;;;2.99;77.92
77706;BME280;66874;45.274;5.880;2024-03-02T03:56:58;98070.38;;;3.01;77.59
77706;BME280;66874;45.274;5.880;2024-03-02T03:59:24;98063.47;;;3.06;77.81
77706;BME280;66874;45.274;5.880;2024-03-02T04:01:49;98062.59;;;3.12;77.69
77706;BME280;66874;45.274;5.880;2024-03-02T04:04:15;98057.41;;;3.10;77.69
77706;BME280;66874;45.274;5.880;2024-03-02T04:06:40;98056.56;;;3.11;77.85
77706;BME280;66874;45.274;5.880;2024-03-02T04:09:05;98055.69;;;3.12;77.78
77706;BME280;66874;45.274;5.880;2024-03-02T04:11:31;98050.50;;;3.15;77.63
77706;BME280;66874;45.274;5.880;2024-03-02T04:13:56;98042.75;;;3.15;77.71
77706;BME280;66874;45.274;5.880;2024-03-02T04:16:21;98041.00;;;3.17;77.90
77706;BME280;66874;45.274;5.880;2024-03-02T04:18:47;98036.69;;;3.20;77.85
77706;BME280;66874;45.274;5.880;2024-03-02T04:21:12;98036.66;;;3.24;77.92
77706;BME280;66874;45.274;5.880;2024-03-02T04:23:38;98028.91;;;3.27;78.16
77706;BME280;66874;45.274;5.880;2024-03-02T04:26:03;98029.72;;;3.32;78.07
77706;BME280;66874;45.274;5.880;2024-03-02T04:28:29;98021.91;;;3.37;78.01
77706;BME280;66874;45.274;5.880;2024-03-02T04:30:56;98022.72;;;3.42;78.03
77706;BME280;66874;45.274;5.880;2024-03-02T04:33:21;98026.13;;;3.49;77.88
77706;BME280;66874;45.274;5.880;2024-03-02T04:35:46;98021.81;;;3.52;77.99
77706;BME280;66874;45.274;5.880;2024-03-02T04:38:12;98026.13;;;3.52;78.03
77706;BME280;66874;45.274;5.880;2024-03-02T04:40:37;98027.84;;;3.54;78.02
77706;BME280;66874;45.274;5.880;2024-03-02T04:43:03;98026.09;;;3.56;78.43
77706;BME280;66874;45.274;5.880;2024-03-02T04:45:28;98028.66;;;3.59;78.24
77706;BME280;66874;45.274;5.880;2024-03-02T04:47:54;98035.53;;;3.62;78.37
77706;BME280;66874;45.274;5.880;2024-03-02T04:50:19;98040.69;;;3.60;78.49
77706;BME280;66874;45.274;5.880;2024-03-02T04:52:45;98050.19;;;3.60;78.47
77706;BME280;66874;45.274;5.880;2024-03-02T04:55:10;98052.78;;;3.60;78.51
77706;BME280;66874;45.274;5.880;2024-03-02T04:57:50;98059.72;;;3.53;78.55
77706;BME280;66874;45.274;5.880;2024-03-02T05:00:16;98059.75;;;3.49;78.61
77706;BME280;66874;45.274;5.880;2024-03-02T05:02:42;98053.72;;;3.51;78.88
77706;BME280;66874;45.274;5.880;2024-03-02T05:05:08;98060.59;;;3.52;78.84
77706;BME280;66874;45.274;5.880;2024-03-02T05:07:33;98054.63;;;3.44;79.22
77706;BME280;66874;45.274;5.880;2024-03-02T05:09:59;98061.50;;;3.47;78.94
77706;BME280;66874;45.274;5.880;2024-03-02T05:12:24;98052.00;;;3.49;79.18
77706;BME280;66874;45.274;5.880;2024-03-02T05:15:11;98052.84;;;3.52;79.16
77706;BME280;66874;45.274;5.880;2024-03-02T05:17:37;98057.13;;;3.55;79.16
77706;BME280;66874;45.274;5.880;2024-03-02T05:20:03;98055.44;;;3.54;79.04
77706;BME280;66874;45.274;5.880;2024-03-02T05:22:29;98058.81;;;3.57;79.19
77706;BME280;66874;45.274;5.880;2024-03-02T05:24:54;98059.69;;;3.59;79.16
77706;BME280;66874;45.274;5.880;2024-03-02T05:27:20;98054.50;;;3.62;79.08
77706;BME280;66874;45.274;5.880;2024-03-02T05:29:46;98051.00;;;3.66;79.06
77706;BME280;66874;45.274;5.880;2024-03-02T05:32:12;98041.50;;;3.68;79.11
77706;BME280;66874;45.274;5.880;2024-03-02T05:34:37;98045.78;;;3.71;79.12
77706;BME280;66874;45.274;5.880;2024-03-02T05:37:03;98046.66;;;3.73;79.12
77706;BME280;66874;45.274;5.880;2024-03-02T05:39:28;98039.72;;;3.77;79.21
77706;BME280;66874;45.274;5.880;2024-03-02T05:41:53;98036.25;;;3.79;79.11
77706;BME280;66874;45.274;5.880;2024-03-02T05:44:19;98028.47;;;3.82;79.18
77706;BME280;66874;45.274;5.880;2024-03-02T05:46:45;98026.75;;;3.81;78.96
77706;BME280;66874;45.274;5.880;2024-03-02T05:49:10;98028.47;;;3.81;79.03
77706;BME280;66874;45.274;5.880;2024-03-02T05:51:36;98024.19;;;3.78;79.13
77706;BME280;66874;45.274;5.880;2024-03-02T05:54:01;98027.66;;;3.76;79.07
77706;BME280;66874;45.274;5.880;2024-03-02T05:56:27;98020.78;;;3.73;79.41
77706;BME280;66874;45.274;5.880;2024-03-02T05:58:52;98025.94;;;3.75;79.33
77706;BME280;66874;45.274;5.880;2024-03-02T06:01:36;98013.88;;;3.72;79.08
77706;BME280;66874;45.274;5.880;2024-03-02T06:04:02;98006.19;;;3.64;79.29
77706;BME280;66874;45.274;5.880;2024-03-02T06:06:27;98008.81;;;3.61;79.52
77706;BME280;66874;45.274;5.880;2024-03-02T06:08:53;98003.66;;;3.61;79.43
77706;BME280;66874;45.274;5.880;2024-03-02T06:11:19;97996.75;;;3.60;79.51
77706;BME280;66874;45.274;5.880;2024-03-02T06:13:45;97996.75;;;3.59;79.53
77706;BME280;66874;45.274;5.880;2024-03-02T06:16:11;97997.63;;;3.59;79.64
77706;BME280;66874;45.274;5.880;2024-03-02T06:18:36;97998.47;;;3.60;79.60
77706;BME280;66874;45.274;5.880;2024-03-02T06:21:02;97989.00;;;3.59;79.73
77706;BME280;66874;45.274;5.880;2024-03-02T06:23:27;97991.59;;;3.57;79.71
77706;BME280;66874;45.274;5.880;2024-03-02T06:25:52;97993.34;;;3.55;79.38
77706;BME280;66874;45.274;5.880;2024-03-02T06:28:18;97991.63;;;3.53;79.60
77706;BME280;66874;45.274;5.880;2024-03-02T06:30:43;97984.78;;;3.50;79.67
77706;BME280;66874;45.274;5.880;2024-03-02T06:33:09;97989.94;;;3.52;79.39
77706;BME280;66874;45.274;5.880;2024-03-02T06:35:35;97984.78;;;3.50;79.63
77706;BME280;66874;45.274;5.880;2024-03-02T06:38:00;97979.59;;;3.50;79.75
77706;BME280;66874;45.274;5.880;2024-03-02T06:40:26;97977.84;;;3.52;79.54
77706;BME280;66874;45.274;5.880;2024-03-02T06:42:51;97978.72;;;3.51;79.82
77706;BME280;66874;45.274;5.880;2024-03-02T06:45:17;97983.09;;;3.46;79.51
77706;BME280;66874;45.274;5.880;2024-03-02T06:47:42;97973.63;;;3.40;79.55
77706;BME280;66874;45.274;5.880;2024-03-02T06:50:08;97971.91;;;3.41;79.27
77706;BME280;66874;45.274;5.880;2024-03-02T06:52:34;97971.91;;;3.41;79.48
77706;BME280;66874;45.274;5.880;2024-03-02T06:55:00;97972.78;;;3.43;79.69
77706;BME280;66874;45.274;5.880;2024-03-02T06:57:25;97977.03;;;3.47;79.52
77706;BME280;66874;45.274;5.880;2024-03-02T06:59:51;97968.44;;;3.47;79.43
77706;BME280;66874;45.274;5.880;2024-03-02T07:02:19;97973.53;;;3.53;79.61
77706;BME280;66874;45.274;5.880;2024-03-02T07:04:44;97970.84;;;3.66;79.68
77706;BME280;66874;45.274;5.880;2024-03-02T07:07:10;97968.19;;;3.74;79.42
77706;BME280;66874;45.274;5.880;2024-03-02T07:09:36;97961.19;;;3.85;79.36
77706;BME280;66874;45.274;5.880;2024-03-02T07:12:01;97960.09;;;4.05;79.21
77706;BME280;66874;45.274;5.880;2024-03-02T07:14:27;97953.00;;;4.22;79.02
77706;BME280;66874;45.274;5.880;2024-03-02T07:17:12;97942.47;;;4.39;78.81
77706;BME280;66874;45.274;5.880;2024-03-02T07:19:38;97948.28;;;4.55;78.66
77706;BME280;66874;45.274;5.880;2024-03-02T07:22:06;97936.94;;;4.63;78.48
77706;BME280;66874;45.274;5.880;2024-03-02T07:24:39;97940.34;;;4.67;78.36
77706;BME280;66874;45.274;5.880;2024-03-02T07:27:04;97940.31;;;4.69;78.36
77706;BME280;66874;45.274;5.880;2024-03-02T07:29:30;97945.50;;;4.70;78.53
77706;BME280;66874;45.274;5.880;2024-03-02T07:31:56;97956.69;;;4.72;78.30
77706;BME280;66874;45.274;5.880;2024-03-02T07:34:21;97946.38;;;4.68;78.56
77706;BME280;66874;45.274;5.880;2024-03-02T07:36:47;97948.94;;;4.71;78.55
77706;BME280;66874;45.274;5.880;2024-03-02T07:39:12;97945.47;;;4.73;78.42
77706;BME280;66874;45.274;5.880;2024-03-02T07:41:37;97929.91;;;4.72;78.38
77706;BME280;66874;45.274;5.880;2024-03-02T07:44:03;97943.72;;;4.72;78.47
77706;BME280;66874;45.274;5.880;2024-03-02T07:46:29;97935.94;;;4.74;78.60
77706;BME280;66874;45.274;5.880;2024-03-02T07:48:54;97933.25;;;4.80;78.45
77706;BME280;66874;45.274;5.880;2024-03-02T07:51:19;97929.66;;;4.90;78.50
77706;BME280;66874;45.274;5.880;2024-03-02T07:53:45;97919.09;;;5.04;78.45
77706;BME280;66874;45.274;5.880;2024-03-02T07:56:10;97920.53;;;5.22;78.35
77706;BME280;66874;45.274;5.880;2024-03-02T07:58:35;97910.00;;;5.32;78.25
77706;BME280;66874;45.274;5.880;2024-03-02T08:01:02;97906.31;;;5.44;77.92
77706;BME280;66874;45.274;5.880;2024-03-02T08:03:27;97895.72;;;5.58;77.79
77706;BME280;66874;45.274;5.880;2024-03-02T08:05:53;97884.25;;;5.70;77.58
77706;BME280;66874;45.274;5.880;2024-03-02T08:08:18;97890.91;;;5.83;77.40
77706;BME280;66874;45.274;5.880;2024-03-02T08:10:44;97886.47;;;5.93;77.23
77706;BME280;66874;45.274;5.880;2024-03-02T08:13:09;97875.91;;;6.00;77.05
77706;BME280;66874;45.274;5.880;2024-03-02T08:15:34;97874.81;;;6.12;76.88
77706;BME280;66874;45.274;5.880;2024-03-02T08:18:01;97863.38;;;6.21;76.90
77706;BME280;66874;45.274;5.880;2024-03-02T08:20:26;97868.34;;;6.31;76.79
77706;BME280;66874;45.274;5.880;2024-03-02T08:22:51;97867.34;;;6.39;76.74
77706;BME280;66874;45.274;5.880;2024-03-02T08:25:20;97869.78;;;6.46;76.45
77706;BME280;66874;45.274;5.880;2024-03-02T08:27:45;97867.09;;;6.49;76.37
77706;BME280;66874;45.274;5.880;2024-03-02T08:30:11;97863.50;;;6.55;76.34
77706;BME280;66874;45.274;5.880;2024-03-02T08:32:37;97866.84;;;6.60;75.77
77706;BME280;66874;45.274;5.880;2024-03-02T08:35:03;97863.34;;;6.61;76.11
77706;BME280;66874;45.274;5.880;2024-03-02T08:37:29;97842.50;;;6.64;75.71
77706;BME280;66874;45.274;5.880;2024-03-02T08:39:54;97839.72;;;6.72;76.17
77706;BME280;66874;45.274;5.880;2024-03-02T08:42:20;97837.72;;;6.84;75.87
77706;BME280;66874;45.274;5.880;2024-03-02T08:44:46;97835.78;;;6.93;75.64
77706;BME280;66874;45.274;5.880;2024-03-02T08:47:11;97836.38;;;7.04;75.48
77706;BME280;66874;45.274;5.880;2024-03-02T08:49:36;97825.66;;;7.16;75.10
77706;BME280;66874;45.274;5.880;2024-03-02T08:52:02;97825.28;;;7.31;74.78
77706;BME280;66874;45.274;5.880;2024-03-02T08:54:27;97819.59;;;7.50;74.63
77706;BME280;66874;45.274;5.880;2024-03-02T08:56:53;97814.75;;;7.69;74.33
77706;BME280;66874;45.274;5.880;2024-03-02T08:59:18;97812.41;;;7.89;73.65
77706;BME280;66874;45.274;5.880;2024-03-02T09:01:44;97802.25;;;8.11;73.63
77706;BME280;66874;45.274;5.880;2024-03-02T09:04:10;97792.00;;;8.33;73.17
77706;BME280;66874;45.274;5.880;2024-03-02T09:06:35;97784.28;;;8.60;72.57
77706;BME280;66874;45.274;5.880;2024-03-02T09:09:01;97791.19;;;8.87;72.02
77706;BME280;66874;45.274;5.880;2024-03-02T09:11:26;97779.16;;;9.10;71.64
77706;BME280;66874;45.274;5.880;2024-03-02T09:13:52;97781.88;;;9.32;71.16
77706;BME280;66874;45.274;5.880;2024-03-02T09:16:18;97778.50;;;9.53;70.64
77706;BME280;66874;45.274;5.880;2024-03-02T09:18:43;97778.31;;;9.59;70.36
77706;BME280;66874;45.274;5.880;2024-03-02T09:21:09;97772.06;;;9.63;70.17
77706;BME280;66874;45.274;5.880;2024-03-02T09:23:35;97764.13;;;9.66;69.98
77706;BME280;66874;45.274;5.880;2024-03-02T09:26:00;97768.53;;;9.64;69.79
77706;BME280;66874;45.274;5.880;2024-03-02T09:28:26;97762.38;;;9.67;69.92
77706;BME280;66874;45.274;5.880;2024-03-02T09:30:51;97756.94;;;9.73;69.89
77706;BME280;66874;45.274;5.880;2024-03-02T09:33:16;97758.34;;;9.82;69.72
77706;BME280;66874;45.274;5.880;2024-03-02T09:35:42;97756.38;;;9.88;69.88
77706;BME280;66874;45.274;5.880;2024-03-02T09:38:07;97757.88;;;9.94;69.22
77706;BME280;66874;45.274;5.880;2024-03-02T09:40:33;97757.78;;;9.97;69.12
77706;BME280;66874;45.274;5.880;2024-03-02T09:42:58;97746.41;;;9.98;69.08
77706;BME280;66874;45.274;5.880;2024-03-02T09:45:25;97741.91;;;10.01;69.08
77706;BME280;66874;45.274;5.880;2024-03-02T09:47:50;97742.72;;;10.03;68.66
77706;BME280;66874;45.274;5.880;2024-03-02T09:50:16;97739.50;;;9.97;68.48
77706;BME280;66874;45.274;5.880;2024-03-02T09:52:48;97738.63;;;9.96;68.61
77706;BME280;66874;45.274;5.880;2024-03-02T09:55:15;97734.31;;;9.95;68.71
77706;BME280;66874;45.274;5.880;2024-03-02T09:57:41;97722.97;;;9.96;68.52
77706;BME280;66874;45.274;5.880;2024-03-02T10:00:08;97724.66;;;9.97;68.54
77706;BME280;66874;45.274;5.880;2024-03-02T10:02:33;97726.25;;;10.01;68.60
77706;BME280;66874;45.274;5.880;2024-03-02T10:04:59;97721.69;;;10.07;68.35
77706;BME280;66874;45.274;5.880;2024-03-02T10:07:24;97715.63;;;10.06;68.01
77706;BME280;66874;45.274;5.880;2024-03-02T10:09:49;97710.19;;;10.11;68.00
77706;BME280;66874;45.274;5.880;2024-03-02T10:12:17;97710.09;;;10.14;68.17
77706;BME280;66874;45.274;5.880;2024-03-02T10:14:44;97710.91;;;10.16;68.07
77706;BME280;66874;45.274;5.880;2024-03-02T10:17:11;97704.63;;;10.20;68.20
77706;BME280;66874;45.274;5.880;2024-03-02T10:19:38;97702.78;;;10.22;68.00
77706;BME280;66874;45.274;5.880;2024-03-02T10:22:05;97700.97;;;10.24;67.90
77706;BME280;66874;45.274;5.880;2024-03-02T10:24:41;97692.06;;;10.30;67.84
77706;BME280;66874;45.274;5.880;2024-03-02T10:27:08;97688.31;;;10.37;67.73
77706;BME280;66874;45.274;5.880;2024-03-02T10:29:37;97675.34;;;10.34;67.48
77706;BME280;66874;45.274;5.880;2024-03-02T10:32:02;97661.38;;;10.35;67.44
77706;BME280;66874;45.274;5.880;2024-03-02T10:34:28;97665.69;;;10.36;67.14
77706;BME280;66874;45.274;5.880;2024-03-02T10:36:54;97664.56;;;10.41;66.80
77706;BME280;66874;45.274;5.880;2024-03-02T10:39:20;97655.56;;;10.48;66.92
77706;BME280;66874;45.274;5.880;2024-03-02T10:41:47;97648.97;;;10.60;66.49
77706;BME280;66874;45.274;5.880;2024-03-02T10:44:15;97646.66;;;10.74;66.45
77706;BME280;66874;45.274;5.880;2024-03-02T10:46:43;97639.84;;;10.91;66.25
77706;BME280;66874;45.274;5.880;2024-03-02T10:49:09;97632.97;;;11.09;65.80
77706;BME280;66874;45.274;5.880;2024-03-02T10:51:35;97623.38;;;11.28;65.48
77706;BME280;66874;45.274;5.880;2024-03-02T10:54:02;97617.09;;;11.51;65.11
77706;BME280;66874;45.274;5.880;2024-03-02T10:56:41;97621.47;;;11.69;64.60
77706;BME280;66874;45.274;5.880;2024-03-02T10:59:32;97614.16;;;11.95;64.17
77706;BME280;66874;45.274;5.880;2024-03-02T11:02:00;97596.56;;;12.16;63.63
77706;BME280;66874;45.274;5.880;2024-03-02T11:04:27;97585.09;;;12.36;63.30
77706;BME280;66874;45.274;5.880;2024-03-02T11:06:58;97573.84;;;12.51;62.48
77706;BME280;66874;45.274;5.880;2024-03-02T11:09:26;97573.84;;;12.68;62.25
77706;BME280;66874;45.274;5.880;2024-03-02T11:14:24;97561.00;;;13.13;61.48
77706;BME280;66874;45.274;5.880;2024-03-02T11:16:51;97553.28;;;13.43;60.61
77706;BME280;66874;45.274;5.880;2024-03-02T11:19:18;97535.91;;;13.72;60.16
77706;BME280;66874;45.274;5.880;2024-03-02T11:21:44;97532.22;;;13.90;59.13
77706;BME280;66874;45.274;5.880;2024-03-02T11:26:53;97523.78;;;14.15;58.38
77706;BME280;66874;45.274;5.880;2024-03-02T11:32:04;97519.41;;;14.30;57.67
77706;BME280;66874;45.274;5.880;2024-03-02T11:36:57;97512.75;;;14.39;57.56
77706;BME280;66874;45.274;5.880;2024-03-02T11:39:27;97490.41;;;14.46;57.30
77706;BME280;66874;45.274;5.880;2024-03-02T11:41:52;97502.97;;;14.41;57.06
77706;BME280;66874;45.274;5.880;2024-03-02T11:44:18;97491.31;;;14.31;57.29
77706;BME280;66874;45.274;5.880;2024-03-02T11:47:00;97485.28;;;14.29;56.93
77706;BME280;66874;45.274;5.880;2024-03-02T11:49:45;97479.03;;;14.46;56.94
77706;BME280;66874;45.274;5.880;2024-03-02T11:52:13;97469.50;;;14.87;56.39
77706;BME280;66874;45.274;5.880;2024-03-02T11:54:40;97460.22;;;15.23;55.54
77706;BME280;66874;45.274;5.880;2024-03-02T11:57:11;97456.69;;;15.37;55.04
77706;BME280;66874;45.274;5.880;2024-03-02T11:59:36;97452.47;;;15.34;54.66
77706;BME280;66874;45.274;5.880;2024-03-02T12:02:02;97462.13;;;15.48;54.72
77706;BME280;66874;45.274;5.880;2024-03-02T12:04:29;97442.09;;;15.46;54.24
77706;BME280;66874;45.274;5.880;2024-03-02T12:06:55;97436.09;;;15.29;53.92
77706;BME280;66874;45.274;5.880;2024-03-02T12:09:22;97435.50;;;15.11;54.14
77706;BME280;66874;45.274;5.880;2024-03-02T12:11:47;97431.91;;;15.12;53.84
77706;BME280;66874;45.274;5.880;2024-03-02T12:14:13;97427.53;;;15.26;53.77
77706;BME280;66874;45.274;5.880;2024-03-02T12:16:38;97421.81;;;16.13;52.91
77706;BME280;66874;45.274;5.880;2024-03-02T12:19:05;97422.06;;;17.23;51.59
77706;BME280;66874;45.274;5.880;2024-03-02T12:21:31;97413.66;;;18.01;50.05
77706;BME280;66874;45.274;5.880;2024-03-02T12:23:57;97395.06;;;18.37;48.75
77706;BME280;66874;45.274;5.880;2024-03-02T12:26:22;97382.69;;;18.48;48.54
77706;BME280;66874;45.274;5.880;2024-03-02T12:28:48;97394.59;;;18.32;48.07
77706;BME280;66874;45.274;5.880;2024-03-02T12:31:14;97375.19;;;18.09;48.03
77706;BME280;66874;45.274;5.880;2024-03-02T12:33:40;97391.19;;;18.07;48.26
77706;BME280;66874;45.274;5.880;2024-03-02T12:36:09;97374.84;;;18.24;47.41
77706;BME280;66874;45.274;5.880;2024-03-02T12:38:37;97370.50;;;18.23;47.50
77706;BME280;66874;45.274;5.880;2024-03-02T12:41:03;97372.06;;;18.15;47.05
77706;BME280;66874;45.274;5.880;2024-03-02T12:43:31;97373.19;;;17.77;47.12
77706;BME280;66874;45.274;5.880;2024-03-02T12:45:57;97371.38;;;17.53;47.50
77706;BME280;66874;45.274;5.880;2024-03-02T12:48:23;97362.22;;;17.46;47.58
77706;BME280;66874;45.274;5.880;2024-03-02T12:50:49;97361.25;;;17.47;47.52
77706;BME280;66874;45.274;5.880;2024-03-02T12:53:15;97342.44;;;17.98;47.20
77706;BME280;66874;45.274;5.880;2024-03-02T12:55:41;97324.78;;;18.33;46.30
77706;BME280;66874;45.274;5.880;2024-03-02T12:58:07;97338.88;;;18.11;45.78
77706;BME280;66874;45.274;5.880;2024-03-02T13:00:32;97337.28;;;17.97;46.48
77706;BME280;66874;45.274;5.880;2024-03-02T13:03:00;97333.59;;;18.78;45.86
77706;BME280;66874;45.274;5.880;2024-03-02T13:05:31;97316.97;;;19.84;44.62
77706;BME280;66874;45.274;5.880;2024-03-02T13:07:58;97312.16;;;20.29;43.33
77706;BME280;66874;45.274;5.880;2024-03-02T13:10:24;97318.56;;;19.75;43.25
77706;BME280;66874;45.274;5.880;2024-03-02T13:12:50;97329.56;;;19.38;43.76
77706;BME280;66874;45.274;5.880;2024-03-02T13:15:15;97328.84;;;19.36;44.01